Gustavus Airport Gustavus US
ICAO: PAGS
IATA:
Category: Medium
Scheduled Services:

Elevation: 35 ft
TransAlt. 18000 ft.

Airport Communications:
AWOS 3:125.9
ANCHORAGE CNTR:133.2
CTAF:122.5
JUNEAU RDO:122.65

PAGS Zoom In..

Runways:

(A) RW 02 length 3146 ft width 60 ft
---- / hdg 21

(B) RW 11 length 6721 ft width 150 ft
---- / hdg 115

(C) RW 20 length 3146 ft width 60 ft
---- / hdg 201

(D) RW 29 length 6721 ft width 150 ft
---- / hdg 295

Location; PAGS
Day. 23 / Time. 06.56 Zulu
* Altimeter: 30.31
* Temperature: 11° c. 51.8°f.
* Wind from: 210° Speed 05 kn.
Dewpoint: 10° c.
Visibility: 10 Statute Miles.
Clouds: Clear (automated report).

PAGS 230656Z AUTO 21005KT 10SM CLR 11/10 A3031 RMK AO2 SLP263 T01110100


Wind From 210°
Speed 05 kn.

 
 
jpsmedia.com for Web Design worldairports.se 2018   terms of use